Terminal Aerodrome Forecast
Issued by NWS Blacksburg, VA

Home | Current Version | Previous Version | Text Only | Print | Product List | Glossary On
Versions: 1 2 3 4 5 6 7 8 9 10 11 12 13 14 15 16 17 18 19 20 21 22 23 24 25 26 27 28 29 30 31 32 33 34 35 36 37 38 39 40 41 42 43 44
000
FTUS41 KRNK 040529
TAFBLF
TAF
KBLF 040529Z 0406/0506 VRB03KT P6SM VCSH SCT009 OVC035
     FM040900 27004KT 4SM BR VCSH OVC007
     FM041600 29007KT P6SM VCSH BKN035
     FM050200 VRB03KT P6SM SCT060 BKN120=

USA.gov is the U.S. government's official web portal to all federal, state and local government web resources and services.